createdAt,value
2023-02-16T00:02:36.663Z,31.8
2023-02-16T00:05:38.566Z,37.3
2023-02-16T00:08:40.558Z,36.6
2023-02-16T00:11:42.505Z,31.8
2023-02-16T00:14:44.475Z,34.9
2023-02-16T00:17:46.447Z,33.6
2023-02-16T00:20:48.394Z,33.3
2023-02-16T00:23:50.378Z,32.9
2023-02-16T00:26:52.334Z,37.3
2023-02-16T00:29:54.316Z,33.2
2023-02-16T00:32:56.288Z,34.5
2023-02-16T00:35:58.241Z,34.1
2023-02-16T00:39:00.226Z,36.5
2023-02-16T00:42:02.238Z,35
2023-02-16T00:45:04.146Z,33.4
2023-02-16T00:48:06.112Z,37.3
2023-02-16T00:51:20.416Z,38.2
2023-02-16T00:54:10.058Z,39.8
2023-02-16T00:57:11.995Z,33.7
2023-02-16T01:00:14.010Z,36.6
2023-02-16T01:03:15.925Z,32.6
2023-02-16T01:06:17.880Z,36.3
2023-02-16T01:09:19.845Z,35.3
2023-02-16T01:12:21.809Z,35.6
2023-02-16T01:15:23.778Z,34.5
2023-02-16T01:18:25.715Z,36.6
2023-02-16T01:21:27.676Z,40
2023-02-16T01:24:29.651Z,39.7
2023-02-16T01:27:31.647Z,40.1
2023-02-16T01:30:33.643Z,42.4
2023-02-16T01:33:35.557Z,37.9
2023-02-16T01:36:37.517Z,40.5
2023-02-16T01:39:39.463Z,40.1
2023-02-16T01:42:41.418Z,41.9
2023-02-16T01:45:43.385Z,36.8
2023-02-16T01:48:45.354Z,34.7
2023-02-16T01:51:47.311Z,38.5
2023-02-16T01:54:49.283Z,38.5
2023-02-16T01:57:51.235Z,40.6
2023-02-16T02:00:53.210Z,39.8
2023-02-16T02:03:55.156Z,40.4
2023-02-16T02:06:57.128Z,39.6
2023-02-16T02:09:59.081Z,41.4
2023-02-16T02:13:01.090Z,36.8
2023-02-16T02:16:03.044Z,39.1
2023-02-16T02:19:04.990Z,36.5
2023-02-16T02:22:06.942Z,43
2023-02-16T02:25:08.894Z,40
2023-02-16T02:28:10.901Z,39.8
2023-02-16T02:31:12.914Z,34.2
2023-02-16T02:34:14.796Z,37.7
2023-02-16T02:37:16.790Z,37.5
2023-02-16T02:40:18.733Z,37.3
2023-02-16T02:43:20.675Z,39.9
2023-02-16T02:46:22.648Z,36.5
2023-02-16T02:49:24.638Z,43.7
2023-02-16T02:52:26.568Z,44.1
2023-02-16T02:55:28.535Z,43.7
2023-02-16T02:58:30.484Z,40.7
2023-02-16T03:01:32.442Z,40.5
2023-02-16T03:04:34.411Z,41.4
2023-02-16T03:07:36.369Z,42.5
2023-02-16T03:10:38.370Z,38.3
2023-02-16T03:13:40.311Z,41.6
2023-02-16T03:16:42.276Z,36.7
2023-02-16T03:19:44.227Z,37.5
2023-02-16T03:22:46.201Z,35.4
2023-02-16T03:25:48.157Z,34.5
2023-02-16T03:28:50.120Z,36.2
2023-02-16T03:31:52.173Z,33.9
2023-02-16T03:34:54.036Z,32
2023-02-16T03:37:56.026Z,32.4
2023-02-16T03:40:57.970Z,34.1
2023-02-16T03:43:59.949Z,34.5
2023-02-16T03:47:01.905Z,32.5
2023-02-16T03:50:03.870Z,31.5
2023-02-16T03:53:05.873Z,34.3
2023-02-16T03:56:07.800Z,37.7
2023-02-16T03:59:09.766Z,31.1
2023-02-16T04:02:11.746Z,36.5
2023-02-16T04:05:13.685Z,32.7
2023-02-16T04:08:15.655Z,30
2023-02-16T04:11:17.609Z,28.4
2023-02-16T04:14:19.550Z,27.4
2023-02-16T04:17:21.519Z,28.5
2023-02-16T04:20:23.465Z,31.4
2023-02-16T04:23:25.423Z,24.8
2023-02-16T04:26:27.400Z,30.2
2023-02-16T04:29:29.359Z,29.9
2023-02-16T04:32:31.318Z,28.3
2023-02-16T04:35:33.276Z,25.1
2023-02-16T04:38:35.471Z,29.6
2023-02-16T04:41:37.210Z,26.9
2023-02-16T04:44:39.171Z,27.8
2023-02-16T04:47:41.150Z,27.9
2023-02-16T04:50:43.116Z,27.7
2023-02-16T04:53:45.060Z,25
2023-02-16T04:56:47.033Z,27.6
2023-02-16T04:59:48.996Z,28.6
2023-02-16T05:02:50.963Z,25.4
2023-02-16T05:05:52.902Z,26.8
2023-02-16T05:08:54.897Z,26.9
2023-02-16T05:11:56.840Z,29
2023-02-16T05:14:58.797Z,24.8
2023-02-16T05:18:00.845Z,25.4
2023-02-16T05:21:03.040Z,24
2023-02-16T05:24:04.673Z,29.2
2023-02-16T05:27:06.616Z,28.1
2023-02-16T05:30:08.629Z,26.8
2023-02-16T05:33:10.555Z,26.8
2023-02-16T05:36:12.518Z,28.1
2023-02-16T05:39:14.489Z,25.7
2023-02-16T05:42:16.467Z,27.8
2023-02-16T05:45:18.429Z,24
2023-02-16T05:48:20.382Z,27.2
2023-02-16T05:51:22.352Z,26.7
2023-02-16T05:54:24.332Z,29.3
2023-02-16T05:57:26.268Z,31.2
2023-02-16T06:00:28.258Z,27.9
2023-02-16T06:03:30.247Z,25.4
2023-02-16T06:06:32.184Z,27.3
2023-02-16T06:09:34.163Z,28
2023-02-16T06:12:36.126Z,30.3
2023-02-16T06:15:38.126Z,25.1
2023-02-16T06:18:40.054Z,26.6
2023-02-16T06:21:42.022Z,30.6
2023-02-16T06:24:43.996Z,29.5
2023-02-16T06:27:45.952Z,25.3
2023-02-16T06:30:47.909Z,28
2023-02-16T06:33:49.857Z,25.8
2023-02-16T06:36:51.809Z,30.2
2023-02-16T06:39:53.777Z,27.9
2023-02-16T06:42:55.735Z,25.3
2023-02-16T06:45:57.727Z,25.7
2023-02-16T06:48:59.664Z,27.4
2023-02-16T06:52:01.634Z,27.6
2023-02-16T06:55:03.607Z,26.2
2023-02-16T06:58:05.690Z,25.3
2023-02-16T07:01:07.657Z,29.9
2023-02-16T07:04:09.436Z,25.6
2023-02-16T07:07:11.406Z,30.4
2023-02-16T07:10:13.383Z,27.2
2023-02-16T07:13:15.361Z,27
2023-02-16T07:16:17.368Z,25.7
2023-02-16T07:19:19.278Z,29.2
2023-02-16T07:22:21.259Z,28.7
2023-02-16T07:25:23.211Z,27.9
2023-02-16T07:28:25.187Z,28.4
2023-02-16T07:31:27.267Z,26.8
2023-02-16T07:34:29.109Z,27.4
2023-02-16T07:37:31.075Z,28.6
2023-02-16T07:40:33.021Z,24.8
2023-02-16T07:43:34.986Z,23.8
2023-02-16T07:46:36.955Z,21.8
2023-02-16T07:49:38.925Z,27.7
2023-02-16T07:52:40.866Z,24.2
2023-02-16T07:55:42.824Z,25.7
2023-02-16T07:58:44.797Z,23.9
2023-02-16T08:01:46.770Z,26.7
2023-02-16T08:04:48.717Z,24.5
2023-02-16T08:07:50.669Z,23.1
2023-02-16T08:10:52.615Z,22.9
2023-02-16T08:13:54.595Z,25.3
2023-02-16T08:16:56.789Z,19.5
2023-02-16T08:19:58.509Z,19.8
2023-02-16T08:23:00.540Z,19.7
2023-02-16T08:26:02.683Z,19.3
2023-02-16T08:29:04.424Z,23
2023-02-16T08:32:06.427Z,20.6
2023-02-16T08:35:08.358Z,24.2
2023-02-16T08:38:10.312Z,21.1
2023-02-16T08:41:12.283Z,20.6
2023-02-16T08:44:14.321Z,21.2
2023-02-16T08:47:16.206Z,22.2
2023-02-16T08:50:18.181Z,21.2
2023-02-16T08:53:20.116Z,21.5
2023-02-16T08:56:22.082Z,20.5
2023-02-16T08:59:25.117Z,20.9
2023-02-16T09:02:25.997Z,17.4
2023-02-16T09:05:27.945Z,19.4
2023-02-16T09:08:30.072Z,19
2023-02-16T09:11:31.853Z,19.5
2023-02-16T09:14:33.854Z,18.6
2023-02-16T09:17:35.839Z,19.3
2023-02-16T09:20:37.763Z,20.9
2023-02-16T09:23:40.183Z,19.8
2023-02-16T09:26:41.698Z,19.7
2023-02-16T09:29:43.657Z,20.2
2023-02-16T09:32:45.687Z,20.1
2023-02-16T09:35:47.595Z,19.8
2023-02-16T09:38:49.551Z,18.9
2023-02-16T09:41:51.517Z,21.3
2023-02-16T09:44:53.499Z,20.9
2023-02-16T09:47:55.458Z,21.3
2023-02-16T09:50:57.447Z,22.7
2023-02-16T09:53:59.421Z,23.4
2023-02-16T09:57:01.404Z,21.2
2023-02-16T10:00:03.381Z,20.6
2023-02-16T10:03:05.291Z,21.8
2023-02-16T10:06:07.272Z,17.7
2023-02-16T10:09:09.210Z,17.7
2023-02-16T10:12:11.178Z,20.8
2023-02-16T10:15:13.128Z,18.1
2023-02-16T10:18:15.084Z,20
2023-02-16T10:21:17.065Z,20.9
2023-02-16T10:24:19.011Z,17.5
2023-02-16T10:27:20.983Z,21
2023-02-16T10:30:22.997Z,19.4
2023-02-16T10:33:24.893Z,19.8
2023-02-16T10:36:26.904Z,18.5
2023-02-16T10:39:28.873Z,21.7
2023-02-16T10:42:30.802Z,25.4
2023-02-16T10:45:32.778Z,23.4
2023-02-16T10:48:34.731Z,22.6
2023-02-16T10:51:36.866Z,25.1
2023-02-16T10:54:38.655Z,26
2023-02-16T10:57:40.650Z,23.4
2023-02-16T11:00:42.604Z,22.1
2023-02-16T11:03:44.580Z,24
2023-02-16T11:06:46.513Z,25.8
2023-02-16T11:09:48.463Z,26.8
2023-02-16T11:12:50.450Z,26.3
2023-02-16T11:15:52.456Z,25.2
2023-02-16T11:18:54.364Z,23.8
2023-02-16T11:21:56.308Z,23.4
2023-02-16T11:24:58.276Z,24.4
2023-02-16T11:28:00.254Z,22.5
2023-02-16T11:31:02.480Z,26.8
2023-02-16T11:34:05.796Z,26.2
2023-02-16T11:37:06.137Z,26.4
2023-02-16T11:40:08.083Z,25.7
2023-02-16T11:43:10.059Z,26.5
2023-02-16T11:46:12.028Z,26.6
2023-02-16T11:49:13.996Z,28.7
2023-02-16T11:52:15.921Z,29.2
2023-02-16T11:55:17.903Z,30.5
2023-02-16T11:58:19.917Z,27
2023-02-16T12:01:21.844Z,27.4
2023-02-16T12:04:23.833Z,28.7
2023-02-16T12:07:25.753Z,28.3
2023-02-16T12:10:27.733Z,29.5
2023-02-16T12:13:29.684Z,26.4
2023-02-16T12:16:31.677Z,32
2023-02-16T12:19:33.609Z,31.5
2023-02-16T12:22:35.574Z,25.8
2023-02-16T12:25:37.520Z,27.9
2023-02-16T12:28:39.484Z,25.8
2023-02-16T12:31:41.479Z,26.9
2023-02-16T12:34:43.410Z,25
2023-02-16T12:37:45.359Z,25
2023-02-16T12:40:47.348Z,30.8
2023-02-16T12:43:49.584Z,25.5
2023-02-16T12:46:51.272Z,27.2
2023-02-16T12:49:53.253Z,27.9
2023-02-16T12:52:55.206Z,31.2
2023-02-16T12:55:57.163Z,25
2023-02-16T12:58:59.165Z,28.1
2023-02-16T13:02:01.229Z,26.2
2023-02-16T13:05:03.118Z,25.6
2023-02-16T13:08:05.057Z,25.6
2023-02-16T13:11:07.395Z,27.7
2023-02-16T13:14:08.988Z,29.3
2023-02-16T13:17:10.971Z,29.1
2023-02-16T13:20:12.933Z,28.7
2023-02-16T13:23:14.878Z,27
2023-02-16T13:26:16.936Z,24.7
2023-02-16T13:29:18.868Z,25.4
2023-02-16T13:32:21.192Z,27.9
2023-02-16T13:35:22.819Z,25.2
2023-02-16T13:38:24.757Z,25.2
2023-02-16T13:41:26.722Z,26.3
2023-02-16T13:44:28.720Z,22.9
2023-02-16T13:47:30.672Z,23.6
2023-02-16T13:50:32.625Z,25.7
2023-02-16T13:53:34.577Z,21.1
2023-02-16T13:56:36.574Z,20.2
2023-02-16T13:59:38.539Z,21
2023-02-16T14:02:40.517Z,19.6
2023-02-16T14:05:42.516Z,17.5
2023-02-16T14:08:44.568Z,18.8
2023-02-16T14:11:46.469Z,21.3
2023-02-16T14:14:50.254Z,19.6
2023-02-16T14:17:50.358Z,20.6
2023-02-16T14:20:52.331Z,20.2
2023-02-16T14:23:54.291Z,20.3
2023-02-16T14:26:56.271Z,19.8
2023-02-16T14:29:58.236Z,19.2
2023-02-16T14:33:00.178Z,19.6
2023-02-16T14:36:02.102Z,22.9
2023-02-16T14:39:04.113Z,19.5
2023-02-16T14:42:06.236Z,22.3
2023-02-16T14:45:08.006Z,20.6
2023-02-16T14:48:09.966Z,18.9
2023-02-16T14:51:11.951Z,20.2
2023-02-16T14:54:15.232Z,20.6
2023-02-16T14:57:15.834Z,18.7
2023-02-16T15:00:17.785Z,17.9
2023-02-16T15:03:21.645Z,21
2023-02-16T15:06:21.760Z,18.7
2023-02-16T15:09:23.719Z,20.1
2023-02-16T15:12:25.694Z,22.4
2023-02-16T15:15:27.659Z,20.8
2023-02-16T15:18:29.603Z,19.4
2023-02-16T15:21:31.624Z,22.5
2023-02-16T15:24:33.516Z,18.9
2023-02-16T15:27:35.498Z,19.9
2023-02-16T15:30:37.460Z,20.3
2023-02-16T15:33:39.409Z,18.9
2023-02-16T15:36:41.371Z,19.5
2023-02-16T15:39:56.134Z,21.7
2023-02-16T15:42:45.316Z,18.1
2023-02-16T15:45:47.276Z,21.5
2023-02-16T15:48:49.239Z,21.8
2023-02-16T15:51:51.210Z,24.1
2023-02-16T15:54:53.158Z,21.5
2023-02-16T15:57:55.115Z,20.5
2023-02-16T16:00:57.101Z,21.5
2023-02-16T16:03:59.056Z,22.2
2023-02-16T16:07:01.008Z,19.5
2023-02-16T16:10:02.973Z,19.7
2023-02-16T16:13:04.991Z,17.5
2023-02-16T16:16:07.393Z,17.5
2023-02-16T16:19:08.889Z,17.2
2023-02-16T16:22:10.868Z,18.7
2023-02-16T16:25:12.791Z,17.6
2023-02-16T16:28:14.742Z,19.4
2023-02-16T16:31:16.828Z,20.9
2023-02-16T16:34:18.669Z,24.4
2023-02-16T16:37:20.611Z,21.4
2023-02-16T16:40:22.609Z,23.7
2023-02-16T16:43:24.564Z,21.4
2023-02-16T16:46:26.519Z,20.7
2023-02-16T16:49:28.500Z,20
2023-02-16T16:52:30.479Z,21.1
2023-02-16T16:55:32.403Z,24.8
2023-02-16T16:58:34.405Z,24.1
2023-02-16T17:01:38.315Z,20.1
2023-02-16T17:04:38.397Z,21.2
2023-02-16T17:07:40.333Z,21.6
2023-02-16T17:10:42.280Z,18.7
2023-02-16T17:13:44.228Z,19
2023-02-16T17:16:46.234Z,20
2023-02-16T17:19:48.182Z,22.6
2023-02-16T17:22:50.133Z,19.2
2023-02-16T17:25:52.074Z,23
2023-02-16T17:28:54.042Z,21.7
2023-02-16T17:31:56.193Z,24.7
2023-02-16T17:34:57.971Z,24.5
2023-02-16T17:37:59.932Z,23.9
2023-02-16T17:41:01.893Z,21.3
2023-02-16T17:44:03.883Z,23.5
2023-02-16T17:47:05.785Z,22.9
2023-02-16T17:50:07.754Z,25.9
2023-02-16T17:53:09.710Z,23.1
2023-02-16T17:56:11.669Z,23.2
2023-02-16T17:59:13.629Z,21.8
2023-02-16T18:02:15.607Z,22.9
2023-02-16T18:05:17.577Z,23.3
2023-02-16T18:08:19.531Z,23.1
2023-02-16T18:11:21.518Z,25.2
2023-02-16T18:14:23.463Z,22.7
2023-02-16T18:17:25.419Z,20.4
2023-02-16T18:20:27.407Z,21
2023-02-16T18:23:29.372Z,19.2
2023-02-16T18:26:31.325Z,19
2023-02-16T18:29:33.292Z,18.9
2023-02-16T18:32:35.556Z,24.9
2023-02-16T18:35:37.263Z,20.7
2023-02-16T18:38:39.183Z,25.3
2023-02-16T18:41:41.134Z,20.6
2023-02-16T18:44:43.098Z,22
2023-02-16T18:47:45.089Z,20.2
2023-02-16T18:50:47.016Z,22.7
2023-02-16T18:53:48.956Z,24.8
2023-02-16T18:56:50.934Z,21.2
2023-02-16T18:59:52.892Z,20.9
2023-02-16T19:02:54.849Z,23.3
2023-02-16T19:05:56.803Z,20.7
2023-02-16T19:08:58.793Z,23.2
2023-02-16T19:12:00.753Z,20.6
2023-02-16T19:15:02.710Z,20.6
2023-02-16T19:18:04.676Z,19
2023-02-16T19:21:06.643Z,21.4
2023-02-16T19:24:08.594Z,23.8
2023-02-16T19:27:10.558Z,22.2
2023-02-16T19:30:12.609Z,23.5
2023-02-16T19:33:14.476Z,19.8
2023-02-16T19:36:16.462Z,20.8
2023-02-16T19:39:18.405Z,24
2023-02-16T19:42:20.344Z,20.2
2023-02-16T19:45:22.325Z,21.4
2023-02-16T19:48:24.287Z,19.1
2023-02-16T19:51:26.247Z,22
2023-02-16T19:54:28.194Z,22.1
2023-02-16T19:57:30.191Z,21.6
2023-02-16T20:00:32.110Z,20.4
2023-02-16T20:03:34.078Z,19.3
2023-02-16T20:06:36.034Z,20
2023-02-16T20:09:38.017Z,22.1
2023-02-16T20:12:39.956Z,19.4
2023-02-16T20:15:41.948Z,21.7
2023-02-16T20:18:43.938Z,24.4
2023-02-16T20:21:45.857Z,22.7
2023-02-16T20:24:47.810Z,20.7
2023-02-16T20:27:49.777Z,23.4
2023-02-16T20:30:51.780Z,22.4
2023-02-16T20:33:53.719Z,19.8
2023-02-16T20:36:55.654Z,21.1
2023-02-16T20:39:57.625Z,24
2023-02-16T20:42:59.585Z,22.9
2023-02-16T20:46:01.532Z,22.5
2023-02-16T20:49:03.511Z,21.5
2023-02-16T20:52:05.466Z,19.9
2023-02-16T20:55:07.432Z,22
2023-02-16T20:58:09.378Z,27.9
2023-02-16T21:01:11.347Z,25.6
2023-02-16T21:04:13.295Z,25.3
2023-02-16T21:07:15.263Z,23.2
2023-02-16T21:10:17.276Z,24.1
2023-02-16T21:13:19.260Z,23.1
2023-02-16T21:16:21.195Z,23.3
2023-02-16T21:19:23.649Z,24.9
2023-02-16T21:22:25.111Z,25.5
2023-02-16T21:25:27.085Z,21.6
2023-02-16T21:28:29.061Z,23
2023-02-16T21:31:31.097Z,23.9
2023-02-16T21:34:32.987Z,23
2023-02-16T21:37:34.933Z,24.6
2023-02-16T21:40:36.912Z,22
2023-02-16T21:43:38.849Z,23.8
2023-02-16T21:46:40.855Z,24.2
2023-02-16T21:49:42.931Z,27.4
2023-02-16T21:52:44.782Z,23.4
2023-02-16T21:55:46.771Z,26.9
2023-02-16T21:58:48.659Z,27.2
2023-02-16T22:01:50.645Z,24.7
2023-02-16T22:04:52.594Z,24.9
2023-02-16T22:07:54.575Z,21.7
2023-02-16T22:10:56.544Z,24.1
2023-02-16T22:13:58.481Z,24.2
2023-02-16T22:17:00.451Z,28.4
2023-02-16T22:20:02.405Z,27
2023-02-16T22:23:04.385Z,28.7
2023-02-16T22:26:06.605Z,24.7
2023-02-16T22:29:08.313Z,24.6
2023-02-16T22:32:10.353Z,22.1
2023-02-16T22:35:12.242Z,21.7
2023-02-16T22:38:14.190Z,21.7
2023-02-16T22:41:16.154Z,23.8
2023-02-16T22:44:18.115Z,24.2
2023-02-16T22:47:20.103Z,22.3
2023-02-16T22:50:22.060Z,26.4
2023-02-16T22:53:26.126Z,24.3
2023-02-16T22:56:25.984Z,31.5
2023-02-16T22:59:27.950Z,25.1
2023-02-16T23:02:29.914Z,24.1
2023-02-16T23:05:31.874Z,25.2
2023-02-16T23:08:33.843Z,25.7
2023-02-16T23:11:35.792Z,21.7
2023-02-16T23:14:37.767Z,22.6
2023-02-16T23:17:39.721Z,27.6
2023-02-16T23:20:41.674Z,26.9
2023-02-16T23:23:43.635Z,27.2
2023-02-16T23:26:45.597Z,25.1
2023-02-16T23:29:47.553Z,24.4
2023-02-16T23:32:49.517Z,21.4
2023-02-16T23:35:51.478Z,21.6
2023-02-16T23:38:53.436Z,20.4
2023-02-16T23:41:55.431Z,19.5
2023-02-16T23:44:57.361Z,21.1
2023-02-16T23:47:59.348Z,21.6
2023-02-16T23:51:01.321Z,24.8
2023-02-16T23:54:03.250Z,20
2023-02-16T23:57:05.241Z,19.4
